createdAt,value
2018-10-17T00:00:45.775Z,94.5
2018-10-17T00:01:45.681Z,94.5
2018-10-17T00:02:45.583Z,94.4
2018-10-17T00:03:45.507Z,94.3
2018-10-17T00:04:45.831Z,94.3
2018-10-17T00:05:45.757Z,94.3
2018-10-17T00:06:45.664Z,94.4
2018-10-17T00:07:45.566Z,94.3
2018-10-17T00:08:45.468Z,94.4
2018-10-17T00:09:45.381Z,94.5
2018-10-17T00:10:45.284Z,94.5
2018-10-17T00:11:45.197Z,94.6
2018-10-17T00:12:45.105Z,94.6
2018-10-17T00:13:44.993Z,94.7
2018-10-17T00:14:45.330Z,94.5
2018-10-17T00:15:45.279Z,94.6
2018-10-17T00:16:45.247Z,94.7
2018-10-17T00:17:45.161Z,94.8
2018-10-17T00:18:45.065Z,94.9
2018-10-17T00:19:44.972Z,94.8
2018-10-17T00:20:45.099Z,94.8
2018-10-17T00:21:45.005Z,94.7
2018-10-17T00:22:44.943Z,94.8
2018-10-17T00:23:44.842Z,94.8
2018-10-17T00:24:45.194Z,94.9
2018-10-17T00:25:45.111Z,94.8
2018-10-17T00:26:45.009Z,95
2018-10-17T00:27:44.927Z,94.7
2018-10-17T00:28:44.828Z,94.8
2018-10-17T00:29:44.723Z,94.6
2018-10-17T00:30:44.630Z,94.6
2018-10-17T00:31:44.547Z,94.5
2018-10-17T00:32:44.433Z,94.7
2018-10-17T00:33:44.349Z,94.7
2018-10-17T00:34:44.662Z,94.2
2018-10-17T00:35:44.554Z,94.5
2018-10-17T00:36:44.458Z,94.5
2018-10-17T00:37:44.362Z,94.4
2018-10-17T00:38:44.276Z,94.6
2018-10-17T00:39:44.240Z,94.5
2018-10-17T00:40:44.128Z,94.9
2018-10-17T00:41:44.031Z,94.5
2018-10-17T00:42:43.937Z,94.6
2018-10-17T00:43:43.859Z,94.8
2018-10-17T00:44:44.184Z,94.5
2018-10-17T00:45:44.085Z,94.7
2018-10-17T00:46:43.989Z,94.8
2018-10-17T00:47:43.873Z,94.8
2018-10-17T00:48:43.768Z,94.7
2018-10-17T00:49:43.697Z,94.8
2018-10-17T00:50:43.603Z,94.8
2018-10-17T00:51:43.506Z,94.7
2018-10-17T00:52:43.391Z,94.9
2018-10-17T00:53:43.298Z,94.9
2018-10-17T01:04:41.543Z,94.3
2018-10-17T01:05:41.467Z,94.6
2018-10-17T01:06:41.368Z,94.6
2018-10-17T01:07:41.271Z,94.7
2018-10-17T01:08:41.173Z,94.7
2018-10-17T01:09:41.076Z,94.7
2018-10-17T01:10:40.984Z,94.7
2018-10-17T01:11:40.901Z,94.8
2018-10-17T01:12:40.804Z,94.9
2018-10-17T01:13:40.702Z,94.8
2018-10-17T01:14:41.044Z,94.8
2018-10-17T01:15:40.947Z,94.8
2018-10-17T01:16:40.885Z,94.8
2018-10-17T01:17:40.809Z,94.8
2018-10-17T01:18:40.718Z,94.8
2018-10-17T01:19:40.623Z,94.8
2018-10-17T01:20:40.523Z,94.8
2018-10-17T01:21:40.427Z,95.3
2018-10-17T01:22:40.340Z,95.1
2018-10-17T01:23:40.257Z,95.1
2018-10-17T01:34:38.365Z,93.9
2018-10-17T01:35:38.279Z,94.1
2018-10-17T01:36:38.188Z,94.1
2018-10-17T01:37:38.091Z,94.3
2018-10-17T01:38:38.023Z,94.4
2018-10-17T01:39:37.913Z,94.3
2018-10-17T01:40:37.815Z,94.4
2018-10-17T01:41:37.710Z,94.6
2018-10-17T01:42:37.612Z,94.6
2018-10-17T01:43:37.536Z,94.5
2018-10-17T01:44:37.915Z,94.6
2018-10-17T01:45:37.822Z,94.6
2018-10-17T01:46:37.727Z,94.7
2018-10-17T01:47:37.650Z,94.9
2018-10-17T01:48:37.540Z,95
2018-10-17T01:49:37.460Z,95
2018-10-17T01:50:37.364Z,95
2018-10-17T01:51:37.282Z,95.1
2018-10-17T01:52:37.199Z,95.2
2018-10-17T01:53:37.116Z,95.1
2018-10-17T01:54:37.476Z,95.2
2018-10-17T01:55:37.377Z,95.2
2018-10-17T01:56:37.284Z,95.2
2018-10-17T01:57:37.191Z,95.2
2018-10-17T01:58:37.100Z,95.3
2018-10-17T01:59:37.024Z,95.4
2018-10-17T02:00:36.962Z,95.5
2018-10-17T02:01:36.865Z,95.5
2018-10-17T02:02:36.769Z,95.5
2018-10-17T02:03:36.685Z,95.5
2018-10-17T02:04:37.011Z,95.5
2018-10-17T02:05:36.933Z,95.5
2018-10-17T02:06:36.845Z,95.5
2018-10-17T02:07:36.777Z,95.5
2018-10-17T02:08:36.679Z,95.5
2018-10-17T02:09:36.583Z,95.4
2018-10-17T02:10:36.522Z,95.5
2018-10-17T02:11:36.432Z,95.7
2018-10-17T02:12:36.329Z,95.5
2018-10-17T02:13:36.229Z,95.5
2018-10-17T02:14:36.545Z,95.5
2018-10-17T02:15:36.450Z,95.5
2018-10-17T02:16:36.365Z,95.5
2018-10-17T02:17:36.256Z,95.5
2018-10-17T02:18:36.342Z,95.6
2018-10-17T02:19:36.249Z,95.7
2018-10-17T02:20:36.159Z,95.7
2018-10-17T02:21:36.117Z,95.7
2018-10-17T02:22:36.041Z,95.7
2018-10-17T02:23:35.943Z,95.7
2018-10-17T02:24:36.346Z,95.9
2018-10-17T02:25:36.238Z,95.8
2018-10-17T02:26:36.154Z,95.9
2018-10-17T02:27:36.070Z,95.9
2018-10-17T02:28:35.988Z,96.1
2018-10-17T02:29:35.894Z,96
2018-10-17T02:30:35.798Z,96
2018-10-17T02:31:35.699Z,96
2018-10-17T02:32:35.646Z,96.1
2018-10-17T02:33:35.555Z,96
2018-10-17T02:34:35.905Z,95.9
2018-10-17T02:35:35.815Z,96
2018-10-17T02:36:35.730Z,96
2018-10-17T02:37:35.665Z,96
2018-10-17T02:38:35.577Z,95.9
2018-10-17T02:39:36.034Z,95.8
2018-10-17T02:40:36.180Z,95.8
2018-10-17T02:41:36.092Z,95.9
2018-10-17T02:42:35.997Z,95.9
2018-10-17T02:43:35.920Z,95.9
2018-10-17T02:54:34.253Z,95.1
2018-10-17T02:55:34.171Z,95.4
2018-10-17T02:56:34.062Z,95.5
2018-10-17T02:57:33.974Z,95.5
2018-10-17T02:58:33.892Z,95.6
2018-10-17T02:59:33.824Z,95.6
2018-10-17T03:00:33.759Z,95.5
2018-10-17T03:01:33.681Z,95.7
2018-10-17T03:02:33.599Z,95.7
2018-10-17T03:03:33.515Z,95.7
2018-10-17T03:19:27.909Z,94.9
2018-10-17T03:20:27.841Z,95.2
2018-10-17T03:21:27.787Z,95.4
2018-10-17T03:22:27.707Z,95.4
2018-10-17T03:23:27.684Z,95.4
2018-10-17T03:24:27.585Z,95.3
2018-10-17T03:25:27.581Z,95.4
2018-10-17T03:26:27.966Z,95.3
2018-10-17T03:27:27.893Z,95.5
2018-10-17T03:28:27.803Z,95.5
2018-10-17T03:29:27.730Z,95.6
2018-10-17T03:30:27.656Z,95.8
2018-10-17T03:31:28.363Z,95.8
2018-10-17T03:32:28.842Z,95.8
2018-10-17T03:33:28.762Z,95.7
2018-10-17T03:34:28.692Z,95.7
2018-10-17T03:35:28.600Z,95.7
2018-10-17T03:36:29.780Z,95.5
2018-10-17T03:37:29.726Z,96.1
2018-10-17T03:38:29.643Z,95.8
2018-10-17T03:39:29.577Z,95.8
2018-10-17T03:40:29.483Z,95.7
2018-10-17T03:41:29.490Z,95.8
2018-10-17T03:42:29.437Z,95.9
2018-10-17T03:43:29.344Z,96
2018-10-17T03:44:29.255Z,96
2018-10-17T03:45:29.193Z,96
2018-10-17T03:46:29.555Z,95.6
2018-10-17T03:47:29.478Z,95.8
2018-10-17T03:48:29.396Z,95.9
2018-10-17T03:49:29.627Z,95.8
2018-10-17T03:50:29.695Z,95.9
2018-10-17T03:51:29.626Z,95.9
2018-10-17T03:52:29.546Z,95.8
2018-10-17T03:53:29.489Z,95.9
2018-10-17T03:54:29.405Z,96
2018-10-17T03:55:29.314Z,96.1
2018-10-17T04:17:26.660Z,95
2018-10-17T04:18:26.595Z,95.3
2018-10-17T04:19:26.529Z,95.4
2018-10-17T04:20:26.468Z,95.6
2018-10-17T04:21:26.380Z,95.5
2018-10-17T04:22:26.423Z,95.6
2018-10-17T04:23:26.500Z,95.6
2018-10-17T04:24:26.428Z,95.5
2018-10-17T04:25:26.361Z,95.7
2018-10-17T04:26:26.721Z,95.4
2018-10-17T04:27:26.623Z,95.7
2018-10-17T04:28:26.535Z,95.7
2018-10-17T04:29:26.464Z,95.6
2018-10-17T04:30:26.387Z,95.8
2018-10-17T04:31:29.078Z,95.8
2018-10-17T04:32:28.995Z,95.7
2018-10-17T04:33:28.911Z,95.6
2018-10-17T04:34:28.818Z,95.8
2018-10-17T04:35:28.778Z,95.7
2018-10-17T04:36:29.313Z,95.4
2018-10-17T04:37:29.249Z,95.7
2018-10-17T04:38:29.186Z,95.6
2018-10-17T04:39:29.094Z,95.5
2018-10-17T04:40:28.997Z,95.7
2018-10-17T04:41:28.928Z,95.8
2018-10-17T04:42:28.933Z,95.8
2018-10-17T04:43:28.871Z,95.9
2018-10-17T04:44:28.799Z,95.9
2018-10-17T04:45:28.711Z,95.9
2018-10-17T04:46:29.062Z,95.5
2018-10-17T04:47:29.261Z,95.8
2018-10-17T04:48:29.466Z,95.7
2018-10-17T04:49:29.386Z,95.9
2018-10-17T04:50:29.324Z,95.9
2018-10-17T04:51:29.260Z,95.8
2018-10-17T04:52:29.170Z,95.8
2018-10-17T04:53:29.090Z,95.8
2018-10-17T04:54:29.002Z,95.8
2018-10-17T04:55:28.911Z,95.9
2018-10-17T04:56:29.254Z,95.6
2018-10-17T04:57:29.349Z,96
2018-10-17T04:58:29.251Z,95.9
2018-10-17T04:59:29.170Z,95.8
2018-10-17T05:00:29.093Z,95.8
2018-10-17T05:01:29.001Z,95.9
2018-10-17T05:02:28.993Z,95.9
2018-10-17T05:03:28.911Z,96
2018-10-17T05:04:29.132Z,95.9
2018-10-17T05:05:29.240Z,95.9
2018-10-17T05:06:29.646Z,95.8
2018-10-17T05:07:29.587Z,96.3
2018-10-17T05:08:29.517Z,95.9
2018-10-17T05:09:29.470Z,96
2018-10-17T05:10:29.393Z,95.9
2018-10-17T05:11:29.328Z,96.1
2018-10-17T05:12:29.248Z,96.2
2018-10-17T05:13:29.186Z,96.2
2018-10-17T05:14:29.086Z,96.2
2018-10-17T05:15:29.001Z,96.3
2018-10-17T05:16:29.405Z,95.9
2018-10-17T05:17:29.320Z,96.2
2018-10-17T05:18:29.264Z,96.2
2018-10-17T05:19:29.177Z,96.3
2018-10-17T05:20:29.086Z,96.4
2018-10-17T05:21:28.994Z,96.5
2018-10-17T05:22:28.907Z,96.5
2018-10-17T05:23:28.826Z,96.5
2018-10-17T05:24:28.763Z,96.5
2018-10-17T05:25:28.684Z,96.5
2018-10-17T05:26:29.043Z,96.3
2018-10-17T05:27:28.971Z,96.3
2018-10-17T05:28:28.952Z,96.4
2018-10-17T05:29:29.004Z,96.4
2018-10-17T05:30:29.055Z,96.8
2018-10-17T05:31:28.994Z,96.4
2018-10-17T05:32:28.908Z,96.4
2018-10-17T05:33:28.835Z,96.4
2018-10-17T05:34:28.739Z,96.4
2018-10-17T05:35:28.664Z,96.5
2018-10-17T05:36:29.032Z,96.3
2018-10-17T05:37:29.304Z,96.5
2018-10-17T05:38:29.531Z,96.5
2018-10-17T05:39:29.465Z,96.5
2018-10-17T05:40:29.393Z,96.5
2018-10-17T05:41:29.324Z,96.5
2018-10-17T05:42:29.236Z,96.6
2018-10-17T05:43:29.185Z,96.6
2018-10-17T05:44:29.514Z,96.6
2018-10-17T05:45:29.770Z,96.4
2018-10-17T05:46:30.196Z,96.3
2018-10-17T05:47:30.114Z,96.5
2018-10-17T05:48:30.018Z,96.4
2018-10-17T05:49:29.941Z,96.4
2018-10-17T05:50:29.881Z,96.4
2018-10-17T05:51:29.804Z,96.5
2018-10-17T05:52:29.708Z,96.5
2018-10-17T05:53:29.621Z,96.4
2018-10-17T05:54:29.550Z,96.5
2018-10-17T05:55:29.769Z,96.6
2018-10-17T05:56:30.499Z,96.4
2018-10-17T05:57:30.418Z,96.7
2018-10-17T05:58:30.336Z,96.7
2018-10-17T05:59:30.249Z,96.8
2018-10-17T06:00:30.153Z,96.7
2018-10-17T06:01:30.632Z,96.8
2018-10-17T06:02:31.463Z,96.8
2018-10-17T06:03:31.756Z,96.8
2018-10-17T06:04:31.712Z,97.1
2018-10-17T06:05:31.628Z,96.9
2018-10-17T06:06:32.000Z,96.5
2018-10-17T06:07:31.915Z,96.8
2018-10-17T06:08:31.833Z,96.8
2018-10-17T06:09:31.769Z,96.9
2018-10-17T06:10:31.681Z,96.9
2018-10-17T06:11:31.584Z,96.9
2018-10-17T06:12:31.531Z,97
2018-10-17T06:13:31.431Z,97
2018-10-17T06:14:31.359Z,97
2018-10-17T06:15:31.261Z,97
2018-10-17T06:27:29.738Z,95.8
2018-10-17T06:28:30.237Z,95.8
2018-10-17T06:29:30.177Z,96.1
2018-10-17T06:30:30.269Z,96.4
2018-10-17T06:31:30.357Z,96.1
2018-10-17T06:32:30.294Z,96.2
2018-10-17T06:33:30.244Z,96.2
2018-10-17T06:34:30.451Z,96.1
2018-10-17T06:35:30.588Z,96.1
2018-10-17T06:46:29.314Z,95.2
2018-10-17T06:47:29.228Z,95.5
2018-10-17T06:48:29.150Z,95.6
2018-10-17T06:49:29.114Z,95.6
2018-10-17T06:50:29.060Z,95.6
2018-10-17T06:51:28.983Z,95.5
2018-10-17T06:52:28.904Z,95.6
2018-10-17T06:53:28.835Z,95.5
2018-10-17T06:54:29.204Z,95.6
2018-10-17T06:55:29.510Z,95.6
2018-10-17T06:56:29.886Z,95.3
2018-10-17T06:57:29.809Z,95.6
2018-10-17T06:58:29.745Z,95.6
2018-10-17T06:59:29.675Z,95.6
2018-10-17T07:00:30.664Z,95.6
2018-10-17T07:01:30.751Z,95.6
2018-10-17T07:02:30.781Z,95.6
2018-10-17T07:03:30.692Z,95.6
2018-10-17T07:04:30.612Z,95.6
2018-10-17T07:05:30.542Z,95.6
2018-10-17T07:16:31.387Z,94.5
2018-10-17T07:17:31.312Z,94.7
2018-10-17T07:18:31.221Z,94.8
2018-10-17T07:19:31.144Z,94.9
2018-10-17T07:20:31.048Z,94.9
2018-10-17T07:21:30.975Z,95
2018-10-17T07:22:30.864Z,94.9
2018-10-17T07:23:30.769Z,94.9
2018-10-17T07:24:30.689Z,95
2018-10-17T07:25:30.577Z,94.9
2018-10-17T08:06:30.110Z,91.5
2018-10-17T08:07:30.333Z,91.7
2018-10-17T08:08:30.241Z,91.3
2018-10-17T08:09:30.164Z,91.1
2018-10-17T08:10:30.074Z,91.3
2018-10-17T08:11:29.991Z,91.4
2018-10-17T08:12:29.899Z,91.7
2018-10-17T08:13:29.831Z,91.5
2018-10-17T08:14:29.741Z,91.2
2018-10-17T08:15:29.643Z,91.4
2018-10-17T08:16:30.009Z,90.9
2018-10-17T08:17:29.959Z,90.9
2018-10-17T08:18:29.894Z,91.2
2018-10-17T08:19:29.795Z,91.3
2018-10-17T08:20:29.715Z,90.8
2018-10-17T08:21:30.093Z,91.1
2018-10-17T08:22:30.483Z,91
2018-10-17T08:23:30.462Z,91.2
2018-10-17T08:24:30.352Z,91.1
2018-10-17T08:25:30.280Z,91
2018-10-17T08:26:30.656Z,91
2018-10-17T08:27:31.163Z,91.2
2018-10-17T08:28:31.483Z,91.1
2018-10-17T08:29:31.415Z,90.6
2018-10-17T08:30:31.354Z,91.1
2018-10-17T08:31:31.262Z,91.3
2018-10-17T08:32:31.173Z,91.3
2018-10-17T08:33:31.106Z,91.1
2018-10-17T08:34:31.080Z,91.2
2018-10-17T08:35:32.266Z,90.8
2018-10-17T08:36:35.859Z,90.8
2018-10-17T08:37:39.435Z,91.3
2018-10-17T08:38:41.394Z,91.1
2018-10-17T08:39:41.331Z,91.2
2018-10-17T08:40:41.243Z,91.4
2018-10-17T08:41:41.151Z,91.4
2018-10-17T08:42:41.073Z,90.9
2018-10-17T08:43:40.985Z,91.1
2018-10-17T08:44:40.908Z,91.4
2018-10-17T08:45:40.884Z,91.3
2018-10-17T08:46:41.237Z,90.9
2018-10-17T08:47:41.147Z,90.8
2018-10-17T08:48:41.093Z,91.1
2018-10-17T08:49:41.005Z,91.1
2018-10-17T08:50:41.239Z,90.6
2018-10-17T08:51:41.343Z,90.7
2018-10-17T08:52:41.309Z,90.9
2018-10-17T08:53:41.224Z,90.9
2018-10-17T08:54:41.116Z,90.9
2018-10-17T08:55:41.539Z,90.9
2018-10-17T08:56:42.628Z,90.3
2018-10-17T08:57:42.657Z,90
2018-10-17T08:58:42.701Z,90.2
2018-10-17T08:59:42.615Z,90.3
2018-10-17T09:00:42.557Z,90.6
2018-10-17T09:01:42.475Z,90.6
2018-10-17T09:02:42.404Z,90.8
2018-10-17T09:03:42.330Z,90.7
2018-10-17T09:04:42.255Z,90.9
2018-10-17T09:05:42.182Z,90.6
2018-10-17T09:16:42.905Z,87.1
2018-10-17T09:17:43.151Z,87.1
2018-10-17T09:18:43.040Z,88.6
2018-10-17T09:19:44.372Z,88.9
2018-10-17T09:20:46.737Z,88.4
2018-10-17T09:21:50.094Z,88.6
2018-10-17T09:22:51.478Z,87.7
2018-10-17T09:23:51.476Z,89.5
2018-10-17T09:24:51.532Z,89.1
2018-10-17T09:25:51.507Z,88
2018-10-17T09:26:51.904Z,86.2
2018-10-17T09:27:51.996Z,87.5
2018-10-17T09:28:51.992Z,88.6
2018-10-17T09:29:52.123Z,88.6
2018-10-17T09:30:52.247Z,88
2018-10-17T09:31:52.149Z,88.5
2018-10-17T09:32:52.081Z,88.5
2018-10-17T09:33:52.157Z,87
2018-10-17T09:34:52.167Z,88.4
2018-10-17T09:35:52.264Z,88.4
2018-10-17T09:36:52.748Z,87.8
2018-10-17T09:37:52.670Z,88.5
2018-10-17T09:38:52.575Z,88.2
2018-10-17T09:39:52.575Z,88.4
2018-10-17T09:40:52.567Z,88.3
2018-10-17T09:41:52.611Z,88.6
2018-10-17T09:42:52.654Z,88.6
2018-10-17T09:43:52.596Z,90.1
2018-10-17T09:44:52.508Z,89
2018-10-17T09:45:52.545Z,87.4
2018-10-17T10:06:49.880Z,86.9
2018-10-17T10:07:49.788Z,87.6
2018-10-17T10:08:49.706Z,87.3
2018-10-17T10:09:49.653Z,87.6
2018-10-17T10:10:49.734Z,87.5
2018-10-17T10:11:49.775Z,87
2018-10-17T10:12:49.700Z,86.4
2018-10-17T10:13:49.613Z,86.8
2018-10-17T10:14:49.518Z,86.5
2018-10-17T10:15:49.450Z,87.5
2018-10-17T10:16:49.918Z,87
2018-10-17T10:17:49.834Z,87.5
2018-10-17T10:18:49.774Z,87.9
2018-10-17T10:19:49.689Z,88.4
2018-10-17T10:20:49.642Z,88
2018-10-17T10:21:49.584Z,87.9
2018-10-17T10:22:49.489Z,88
2018-10-17T10:23:49.868Z,88.9
2018-10-17T10:24:50.730Z,88.7
2018-10-17T10:25:51.136Z,88.2
2018-10-17T10:36:50.279Z,84.2
2018-10-17T10:37:50.196Z,84.9
2018-10-17T10:38:50.095Z,85.5
2018-10-17T10:39:50.022Z,85.6
2018-10-17T10:40:49.935Z,84.9
2018-10-17T10:41:49.868Z,83.9
2018-10-17T10:42:49.841Z,84.3
2018-10-17T10:43:49.778Z,84
2018-10-17T10:44:50.015Z,85.4
2018-10-17T10:45:50.113Z,84.9
2018-10-17T10:46:50.495Z,84.5
2018-10-17T10:47:50.429Z,84.5
2018-10-17T10:48:50.414Z,85.2
2018-10-17T10:49:50.338Z,85.3
2018-10-17T10:50:50.258Z,85.1
2018-10-17T10:51:50.189Z,85.5
2018-10-17T10:52:50.544Z,85
2018-10-17T10:53:50.710Z,84.6
2018-10-17T10:54:50.690Z,84
2018-10-17T10:55:50.592Z,84.6
2018-10-17T11:06:51.581Z,84.8
2018-10-17T11:07:51.638Z,85.6
2018-10-17T11:08:51.598Z,86
2018-10-17T11:09:51.507Z,85.2
2018-10-17T11:10:51.533Z,85.5
2018-10-17T11:11:51.472Z,86
2018-10-17T11:12:51.403Z,85.9
2018-10-17T11:13:51.577Z,85.9
2018-10-17T11:16:53.352Z,84.5
2018-10-17T11:17:53.368Z,84.6
2018-10-17T11:18:53.307Z,84.8
2018-10-17T11:19:53.216Z,85.5
2018-10-17T11:20:53.327Z,85.8
2018-10-17T11:21:53.722Z,86.6
2018-10-17T11:22:54.082Z,86.1
2018-10-17T11:23:54.145Z,86.3
2018-10-17T11:24:54.064Z,86.6
2018-10-17T11:25:54.016Z,87.1
2018-10-17T11:26:54.564Z,85.7
2018-10-17T11:27:54.616Z,86.4
2018-10-17T11:28:54.579Z,86.5
2018-10-17T11:29:54.671Z,86.5
2018-10-17T11:30:54.571Z,86.8
2018-10-17T11:31:55.008Z,86.8
2018-10-17T11:32:55.544Z,86.9
2018-10-17T11:33:55.621Z,87.4
2018-10-17T11:34:55.757Z,87.9
2018-10-17T11:35:55.786Z,87.8
2018-10-17T11:36:56.143Z,86.7
2018-10-17T11:37:56.627Z,87.3
2018-10-17T11:38:56.955Z,87
2018-10-17T11:39:57.263Z,87.2
2018-10-17T11:40:57.674Z,87.8
2018-10-17T11:41:57.976Z,87.7
2018-10-17T11:42:57.884Z,87.7
2018-10-17T11:43:57.806Z,88.3
2018-10-17T11:44:57.941Z,87.9
2018-10-17T11:45:57.990Z,88.2
2018-10-17T11:46:58.501Z,87.4
2018-10-17T11:47:58.482Z,88
2018-10-17T11:48:58.387Z,88.1
2018-10-17T11:49:58.292Z,88.2
2018-10-17T11:50:58.475Z,87.9
2018-10-17T11:51:58.500Z,88.4
2018-10-17T11:52:58.673Z,89.5
2018-10-17T11:53:58.721Z,89.1
2018-10-17T11:54:58.655Z,88.9
2018-10-17T11:55:58.563Z,88.9
2018-10-17T11:56:59.143Z,87.8
2018-10-17T11:57:59.242Z,88.4
2018-10-17T11:58:59.411Z,88
2018-10-17T11:59:59.508Z,88.3
2018-10-17T12:00:59.431Z,88.9
2018-10-17T12:01:59.374Z,89
2018-10-17T12:02:59.439Z,88.8
2018-10-17T12:04:01.433Z,88.3
2018-10-17T12:05:04.595Z,88.1
2018-10-17T12:06:06.491Z,88.3
2018-10-17T12:07:08.215Z,87.7
2018-10-17T12:08:08.145Z,88.3
2018-10-17T12:09:08.487Z,88.1
2018-10-17T12:10:08.702Z,88.1
2018-10-17T12:11:08.796Z,88.1
2018-10-17T12:12:09.137Z,87.9
2018-10-17T12:13:09.177Z,87.7
2018-10-17T12:14:09.084Z,88.1
2018-10-17T12:15:09.316Z,88.4
2018-10-17T12:16:09.559Z,88.7
2018-10-17T12:17:09.917Z,88.1
2018-10-17T12:18:10.306Z,88.6
2018-10-17T12:19:11.197Z,88.6
2018-10-17T12:20:11.461Z,88.5
2018-10-17T12:21:12.089Z,89.1
2018-10-17T12:22:12.541Z,89
2018-10-17T12:23:12.454Z,89.1
2018-10-17T12:24:12.734Z,89
2018-10-17T12:25:13.024Z,88.5
2018-10-17T12:26:12.925Z,89
2018-10-17T12:47:18.889Z,86.3
2018-10-17T12:48:19.346Z,86.9
2018-10-17T12:49:19.262Z,87.2
2018-10-17T12:50:19.682Z,87.4
2018-10-17T12:51:20.008Z,87.6
2018-10-17T12:52:20.130Z,87.7
2018-10-17T12:53:20.430Z,87.8
2018-10-17T12:54:20.429Z,87.8
2018-10-17T12:55:20.371Z,86.6
2018-10-17T12:56:20.289Z,86.7
2018-10-17T12:57:20.678Z,85.4
2018-10-17T12:58:20.624Z,86.2
2018-10-17T12:59:21.005Z,86.4
2018-10-17T13:00:21.147Z,86.6
2018-10-17T13:01:21.057Z,86.9
2018-10-17T13:02:20.983Z,87.1
2018-10-17T13:03:20.907Z,87.3
2018-10-17T13:04:20.820Z,87.4
2018-10-17T13:05:20.741Z,87.4
2018-10-17T13:06:20.661Z,87.4
2018-10-17T13:07:21.262Z,86.9
2018-10-17T13:08:21.200Z,87.4
2018-10-17T13:09:21.240Z,87.1
2018-10-17T13:10:21.233Z,87.1
2018-10-17T13:11:22.088Z,87.2
2018-10-17T13:12:22.323Z,87.2
2018-10-17T13:13:23.155Z,87.5
2018-10-17T13:14:23.057Z,87.8
2018-10-17T13:15:22.982Z,87.6
2018-10-17T13:16:22.898Z,87.8
2018-10-17T13:27:21.574Z,86.6
2018-10-17T13:28:21.712Z,87.4
2018-10-17T13:29:21.793Z,87.9
2018-10-17T13:30:21.704Z,88.4
2018-10-17T13:31:22.020Z,87.7
2018-10-17T13:32:21.933Z,87.5
2018-10-17T13:33:21.863Z,88
2018-10-17T13:34:22.413Z,88.3
2018-10-17T13:35:22.618Z,88
2018-10-17T13:36:22.524Z,88.1
2018-10-17T13:37:23.075Z,88.1
2018-10-17T13:38:22.985Z,88.7
2018-10-17T13:39:22.879Z,89.1
2018-10-17T13:40:23.838Z,89.3
2018-10-17T13:41:23.760Z,89.7
2018-10-17T13:42:23.691Z,90
2018-10-17T13:43:23.834Z,90.1
2018-10-17T13:44:23.742Z,90
2018-10-17T13:45:23.662Z,90.2
2018-10-17T13:46:23.808Z,90
2018-10-17T13:47:24.272Z,89.2
2018-10-17T13:48:24.185Z,89.8
2018-10-17T13:49:24.326Z,89.6
2018-10-17T13:50:24.475Z,89.9
2018-10-17T13:51:24.399Z,89.6
2018-10-17T13:52:25.337Z,90
2018-10-17T13:53:25.235Z,90.1
2018-10-17T13:54:25.150Z,89.8
2018-10-17T13:55:26.057Z,90
2018-10-17T13:56:28.989Z,90.1
2018-10-17T13:57:29.402Z,89.4
2018-10-17T13:58:29.667Z,90
2018-10-17T13:59:30.099Z,90.1
2018-10-17T14:00:30.139Z,90.3
2018-10-17T14:01:30.137Z,90.1
2018-10-17T14:02:30.045Z,90
2018-10-17T14:03:29.982Z,90
2018-10-17T14:04:29.901Z,90
2018-10-17T14:05:29.827Z,90
2018-10-17T14:06:29.786Z,90
2018-10-17T14:07:30.378Z,88.9
2018-10-17T14:08:30.294Z,89.5
2018-10-17T14:09:30.212Z,89.5
2018-10-17T14:10:30.113Z,89.6
2018-10-17T14:11:30.340Z,89.5
2018-10-17T14:12:30.574Z,89.6
2018-10-17T14:13:31.098Z,89.6
2018-10-17T14:14:31.541Z,89.6
2018-10-17T14:15:31.526Z,89.6
2018-10-17T14:16:31.455Z,89.6
2018-10-17T14:17:31.827Z,88.4
2018-10-17T14:18:31.756Z,89.1
2018-10-17T14:19:31.668Z,89.3
2018-10-17T14:20:31.688Z,89.5
2018-10-17T14:21:31.615Z,89.6
2018-10-17T14:22:31.561Z,89.6
2018-10-17T14:23:32.177Z,89.7
2018-10-17T14:24:32.540Z,89.6
2018-10-17T14:25:32.455Z,89.6
2018-10-17T14:26:32.365Z,89.6
2018-10-17T14:27:33.364Z,89
2018-10-17T14:28:33.310Z,89.6
2018-10-17T14:29:33.595Z,89.6
2018-10-17T14:30:33.673Z,89.9
2018-10-17T14:31:33.619Z,89.9
2018-10-17T14:32:33.569Z,90
2018-10-17T14:33:33.496Z,89.8
2018-10-17T14:34:33.389Z,89.4
2018-10-17T14:35:33.302Z,89.3
2018-10-17T14:36:34.234Z,89.5
2018-10-17T14:37:34.941Z,89
2018-10-17T14:38:35.107Z,89.8
2018-10-17T14:39:35.121Z,89.8
2018-10-17T14:40:35.281Z,89.9
2018-10-17T14:41:35.280Z,89.7
2018-10-17T14:42:35.192Z,89.6
2018-10-17T14:43:35.305Z,89.3
2018-10-17T14:44:35.353Z,88.9
2018-10-17T14:45:35.255Z,88.5
2018-10-17T14:46:35.166Z,88.4
2018-10-17T14:47:35.522Z,87.8
2018-10-17T14:48:35.461Z,88.5
2018-10-17T14:49:35.593Z,87.4
2018-10-17T14:50:35.583Z,87.1
2018-10-17T14:51:35.526Z,87.3
2018-10-17T14:52:35.443Z,87.4
2018-10-17T14:53:35.390Z,87.3
2018-10-17T14:54:35.306Z,86.9
2018-10-17T14:55:35.335Z,86.6
2018-10-17T14:56:35.430Z,87
2018-10-17T15:37:34.266Z,84.8
2018-10-17T15:38:36.978Z,85.7
2018-10-17T15:39:36.893Z,86.2
2018-10-17T15:40:36.824Z,86.5
2018-10-17T15:41:36.764Z,87
2018-10-17T15:42:36.705Z,87.9
2018-10-17T15:43:37.026Z,88.2
2018-10-17T15:44:37.257Z,87.9
2018-10-17T15:45:37.233Z,87.8
2018-10-17T15:46:37.168Z,87.8
2018-10-17T15:47:38.538Z,87.5
2018-10-17T15:48:38.483Z,88.3
2018-10-17T15:49:38.404Z,89.2
2018-10-17T15:50:38.323Z,89.3
2018-10-17T15:51:38.248Z,88.8
2018-10-17T15:52:38.191Z,89.7
2018-10-17T15:53:38.787Z,90
2018-10-17T15:54:39.253Z,90.2
2018-10-17T15:55:39.188Z,89.6
2018-10-17T15:56:39.111Z,90
2018-10-17T15:57:39.857Z,89.8
2018-10-17T15:58:39.790Z,90.3
2018-10-17T15:59:39.699Z,90.4
2018-10-17T16:00:39.611Z,90
2018-10-17T16:01:39.571Z,89.7
2018-10-17T16:02:40.031Z,89.8
2018-10-17T16:03:40.490Z,90
2018-10-17T16:04:43.220Z,90
2018-10-17T16:05:43.147Z,90
2018-10-17T16:06:43.068Z,90.4
2018-10-17T16:17:45.670Z,90.4
2018-10-17T16:18:45.604Z,90.6
2018-10-17T16:19:45.531Z,90.9
2018-10-17T16:20:45.434Z,91
2018-10-17T16:21:45.357Z,91
2018-10-17T16:22:45.743Z,91.2
2018-10-17T16:23:46.186Z,91.2
2018-10-17T16:24:46.096Z,91.3
2018-10-17T16:25:48.662Z,91.2
2018-10-17T16:26:48.577Z,91.2
2018-10-17T16:27:48.945Z,91.3
2018-10-17T16:28:48.930Z,91.5
2018-10-17T16:29:48.857Z,91.7
2018-10-17T16:30:49.780Z,91.5
2018-10-17T16:31:50.187Z,91.7
2018-10-17T16:32:50.111Z,91.8
2018-10-17T16:33:50.038Z,91.8
2018-10-17T16:34:49.942Z,91.9
2018-10-17T16:35:49.861Z,91.8
2018-10-17T16:36:49.778Z,91.9
2018-10-17T16:47:48.502Z,91.4
2018-10-17T16:48:48.408Z,91.7
2018-10-17T16:49:49.079Z,91.7
2018-10-17T16:50:49.940Z,91.8
2018-10-17T16:51:50.346Z,91.9
2018-10-17T16:52:50.260Z,92
2018-10-17T16:53:50.161Z,91.9
2018-10-17T16:54:50.088Z,91.9
2018-10-17T16:55:50.017Z,92
2018-10-17T16:56:49.942Z,92.2
2018-10-17T16:57:50.347Z,92
2018-10-17T16:58:50.273Z,92.3
2018-10-17T16:59:50.201Z,92.2
2018-10-17T17:00:50.197Z,92.2
2018-10-17T17:01:50.112Z,92.6
2018-10-17T17:02:50.020Z,92.6
2018-10-17T17:03:49.944Z,92.4
2018-10-17T17:04:49.885Z,92.5
2018-10-17T17:05:49.816Z,92.6
2018-10-17T17:06:49.768Z,92.6
2018-10-17T17:07:50.140Z,92.3
2018-10-17T17:08:50.159Z,92.6
2018-10-17T17:09:50.102Z,92.7
2018-10-17T17:10:50.029Z,92.5
2018-10-17T17:11:49.940Z,92.6
2018-10-17T17:12:49.892Z,92.7
2018-10-17T17:13:49.843Z,92.8
2018-10-17T17:14:49.756Z,92.8
2018-10-17T17:15:49.686Z,92.8
2018-10-17T17:16:49.623Z,92.8
2018-10-17T17:27:49.505Z,92.7
2018-10-17T17:28:49.457Z,92.9
2018-10-17T17:29:50.172Z,93
2018-10-17T17:30:50.414Z,93.1
2018-10-17T17:31:50.336Z,93
2018-10-17T17:32:50.275Z,93
2018-10-17T17:33:50.193Z,93.1
2018-10-17T17:34:50.144Z,93.1
2018-10-17T17:35:50.108Z,93
2018-10-17T17:36:50.024Z,93.2
2018-10-17T17:37:50.388Z,92.8
2018-10-17T17:38:50.343Z,93.1
2018-10-17T17:39:50.298Z,93
2018-10-17T17:40:50.225Z,93.2
2018-10-17T17:41:50.187Z,93.3
2018-10-17T17:42:50.127Z,93.3
2018-10-17T17:43:50.071Z,93.4
2018-10-17T17:44:50.027Z,93.6
2018-10-17T17:45:49.972Z,93.6
2018-10-17T17:46:49.905Z,93.6
2018-10-17T17:47:50.282Z,93.4
2018-10-17T17:48:50.233Z,93.6
2018-10-17T17:49:50.164Z,93.9
2018-10-17T17:50:50.090Z,93.8
2018-10-17T17:51:49.988Z,94.1
2018-10-17T17:52:49.901Z,94.1
2018-10-17T17:53:49.813Z,94.1
2018-10-17T17:54:50.024Z,94.1
2018-10-17T17:55:50.104Z,94.5
2018-10-17T17:56:50.062Z,94.6
2018-10-17T18:07:49.009Z,94
2018-10-17T18:08:48.937Z,94.2
2018-10-17T18:09:48.875Z,94.2
2018-10-17T18:10:48.827Z,94.3
2018-10-17T18:11:48.816Z,94.4
2018-10-17T18:12:48.729Z,94.7
2018-10-17T18:13:48.657Z,94.8
2018-10-17T18:14:48.570Z,94.7
2018-10-17T18:15:48.552Z,94.9
2018-10-17T18:16:48.475Z,95
2018-10-17T18:27:48.065Z,95
2018-10-17T18:28:48.170Z,95.4
2018-10-17T18:29:48.074Z,95.6
2018-10-17T18:30:48.011Z,95.4
2018-10-17T18:31:47.941Z,95.9
2018-10-17T18:32:47.853Z,96.3
2018-10-17T18:33:47.971Z,96.4
2018-10-17T18:34:48.116Z,96.2